Time;durP1;ratioP1;P1;durP2;ratioP2;P2;SDS_P1;SDS_P2;PMS_P1;PMS_P2;Temp;Humidity;BMP_temperature;BMP_pressure;BME280_temperature;BME280_humidity;BME280_pressure;Samples;Min_cycle;Max_cycle;Signal;HPM_P1;HPM_P2
2021/05/09 00:00:09;;;;;;;3.03;2.30;;;;;;;;;;5114656;28;20161;-41
2021/05/09 00:02:35;;;;;;;3.45;2.50;;;;;;;;;;5117172;28;20242;-41
2021/05/09 00:05:01;;;;;;;2.63;1.83;;;;;;;;;;5118225;28;20548;-41
2021/05/09 00:07:27;;;;;;;2.63;1.92;;;;;;;;;;5118093;28;20185;-41
2021/05/09 00:09:53;;;;;;;2.47;2.03;;;;;;;;;;5118299;28;20226;-41
2021/05/09 00:12:19;;;;;;;2.85;2.10;;;;;;;;;;5117788;28;20582;-41
2021/05/09 00:14:45;;;;;;;4.18;2.22;;;;;;;;;;5117609;28;20201;-41
2021/05/09 00:17:11;;;;;;;2.47;1.90;;;;;;;;;;5110742;28;20221;-41
2021/05/09 00:19:37;;;;;;;1.80;1.70;;;;;;;;;;5118135;28;20185;-40
2021/05/09 00:22:03;;;;;;;2.47;2.20;;;;;;;;;;5117206;28;20189;-41
2021/05/09 00:24:29;;;;;;;2.70;2.00;;;;;;;;;;5117576;28;20169;-41
2021/05/09 00:26:55;;;;;;;3.47;2.05;;;;;;;;;;5104390;28;20249;-41
2021/05/09 00:29:22;;;;;;;1.75;1.65;;;;;;;;;;5101265;28;20236;-41
2021/05/09 00:31:47;;;;;;;1.88;1.60;;;;;;;;;;5106770;28;20189;-41
2021/05/09 00:34:13;;;;;;;1.98;1.77;;;;;;;;;;5117865;28;20185;-41
2021/05/09 00:36:39;;;;;;;2.47;1.77;;;;;;;;;;5117358;28;20583;-41
2021/05/09 00:39:05;;;;;;;2.13;1.80;;;;;;;;;;5117749;28;20165;-41
2021/05/09 00:41:31;;;;;;;3.13;1.75;;;;;;;;;;5117283;28;20487;-41
2021/05/09 00:43:57;;;;;;;2.10;1.90;;;;;;;;;;5117657;28;20165;-41
2021/05/09 00:46:23;;;;;;;1.90;1.65;;;;;;;;;;5103268;28;20204;-41
2021/05/09 00:48:49;;;;;;;1.88;1.70;;;;;;;;;;5117230;28;20294;-41
2021/05/09 00:51:15;;;;;;;2.35;1.80;;;;;;;;;;5116709;28;20177;-41
2021/05/09 00:53:43;;;;;;;2.47;1.67;;;;;;;;;;5117604;28;20189;-41
2021/05/09 00:56:13;;;;;;;2.00;1.73;;;;;;;;;;5105412;28;20201;-41
2021/05/09 00:58:41;;;;;;;1.98;1.50;;;;;;;;;;5117295;28;20338;-41
2021/05/09 01:01:06;;;;;;;2.67;2.00;;;;;;;;;;5116470;28;20241;-41
2021/05/09 01:03:34;;;;;;;3.08;2.00;;;;;;;;;;5117421;28;20256;-41
2021/05/09 01:06:01;;;;;;;1.67;1.58;;;;;;;;;;5116779;28;20302;-41
2021/05/09 01:08:29;;;;;;;2.33;1.80;;;;;;;;;;5117218;28;20188;-41
2021/05/09 01:10:55;;;;;;;1.63;1.52;;;;;;;;;;5116332;28;20166;-41
2021/05/09 01:13:21;;;;;;;2.00;1.60;;;;;;;;;;5117057;28;20176;-41
2021/05/09 01:15:47;;;;;;;1.80;1.52;;;;;;;;;;5116573;28;20173;-41
2021/05/09 01:18:13;;;;;;;2.20;1.67;;;;;;;;;;5116787;28;20173;-41
2021/05/09 01:20:40;;;;;;;1.75;1.60;;;;;;;;;;5116511;28;20189;-41
2021/05/09 01:23:06;;;;;;;1.40;1.30;;;;;;;;;;5115737;28;20173;-41
2021/05/09 01:25:32;;;;;;;1.52;1.20;;;;;;;;;;5116468;28;20188;-41
2021/05/09 01:27:58;;;;;;;1.95;1.67;;;;;;;;;;5116659;28;20179;-41
2021/05/09 01:30:25;;;;;;;1.50;1.40;;;;;;;;;;5116832;28;20264;-41
2021/05/09 01:32:52;;;;;;;1.55;1.40;;;;;;;;;;5116093;28;20186;-41
2021/05/09 01:35:18;;;;;;;1.50;1.38;;;;;;;;;;5113921;28;20515;-41
2021/05/09 01:37:44;;;;;;;1.98;1.73;;;;;;;;;;5116763;28;20477;-41
2021/05/09 01:40:13;;;;;;;1.50;1.40;;;;;;;;;;5116255;28;20263;-41
2021/05/09 01:42:41;;;;;;;1.98;1.50;;;;;;;;;;5115987;28;20230;-41
2021/05/09 01:45:07;;;;;;;1.98;1.55;;;;;;;;;;5115954;28;20259;-41
2021/05/09 01:47:36;;;;;;;1.60;1.27;;;;;;;;;;5116748;28;20173;-41
2021/05/09 01:50:02;;;;;;;1.88;1.58;;;;;;;;;;5116168;28;20180;-41
2021/05/09 01:52:28;;;;;;;1.50;1.40;;;;;;;;;;5115975;28;20255;-41
2021/05/09 01:54:54;;;;;;;1.65;1.23;;;;;;;;;;5115765;28;20265;-41
2021/05/09 01:57:20;;;;;;;1.63;1.52;;;;;;;;;;5115612;28;20580;-41
2021/05/09 01:59:46;;;;;;;1.55;1.45;;;;;;;;;;5116463;28;20256;-40
2021/05/09 02:02:12;;;;;;;2.03;1.35;;;;;;;;;;5115628;28;20185;-41
2021/05/09 02:04:38;;;;;;;1.38;1.27;;;;;;;;;;5115301;28;20184;-41
2021/05/09 02:07:04;;;;;;;1.92;1.30;;;;;;;;;;5116239;28;20177;-40
2021/05/09 02:09:30;;;;;;;1.70;1.60;;;;;;;;;;5115625;28;20188;-41
2021/05/09 02:11:56;;;;;;;1.52;1.42;;;;;;;;;;5115357;28;20180;-41
2021/05/09 02:14:22;;;;;;;1.50;1.23;;;;;;;;;;5107942;28;20257;-41
2021/05/09 02:16:48;;;;;;;1.23;1.13;;;;;;;;;;5095853;28;20209;-41
2021/05/09 02:19:14;;;;;;;1.20;1.10;;;;;;;;;;5102414;28;20181;-41
2021/05/09 02:21:40;;;;;;;1.42;1.33;;;;;;;;;;5114989;28;20194;-41
2021/05/09 02:24:06;;;;;;;1.30;1.20;;;;;;;;;;5111895;28;20184;-41
2021/05/09 02:26:32;;;;;;;1.40;1.30;;;;;;;;;;5114754;28;20217;-41
2021/05/09 02:28:58;;;;;;;1.50;1.40;;;;;;;;;;5116145;28;20439;-41
2021/05/09 02:31:24;;;;;;;1.50;1.40;;;;;;;;;;5115442;28;20175;-41
2021/05/09 02:33:50;;;;;;;1.85;1.38;;;;;;;;;;5115041;28;20533;-41
2021/05/09 02:36:16;;;;;;;1.65;1.23;;;;;;;;;;5115427;28;20284;-41
2021/05/09 02:38:42;;;;;;;1.50;1.40;;;;;;;;;;5115636;28;20466;-41
2021/05/09 02:41:08;;;;;;;1.50;1.40;;;;;;;;;;5114757;28;20193;-41
2021/05/09 02:43:34;;;;;;;1.20;1.10;;;;;;;;;;5111738;28;20183;-41
2021/05/09 02:46:00;;;;;;;1.65;1.30;;;;;;;;;;5106041;28;20549;-41
2021/05/09 02:48:26;;;;;;;1.02;0.98;;;;;;;;;;5114774;28;20169;-41
2021/05/09 02:50:51;;;;;;;1.30;1.20;;;;;;;;;;5114542;28;20173;-41
2021/05/09 02:53:17;;;;;;;1.23;1.13;;;;;;;;;;5114891;28;20447;-41
2021/05/09 02:55:43;;;;;;;1.23;1.13;;;;;;;;;;5115486;28;20181;-41
2021/05/09 02:58:09;;;;;;;1.00;1.00;;;;;;;;;;5115616;28;20741;-41
2021/05/09 03:00:35;;;;;;;1.77;1.52;;;;;;;;;;5114703;28;20197;-41
2021/05/09 03:03:01;;;;;;;1.08;1.00;;;;;;;;;;5108178;28;20540;-41
2021/05/09 03:05:27;;;;;;;1.55;1.30;;;;;;;;;;5111718;28;20188;-41
2021/05/09 03:07:53;;;;;;;1.30;1.20;;;;;;;;;;5115373;28;20451;-41
2021/05/09 03:10:19;;;;;;;1.00;1.00;;;;;;;;;;5115318;28;20478;-41
2021/05/09 03:12:45;;;;;;;1.10;1.00;;;;;;;;;;5113260;28;20253;-41
2021/05/09 03:15:12;;;;;;;1.10;0.95;;;;;;;;;;5115273;28;20184;-41
2021/05/09 03:17:38;;;;;;;1.10;1.10;;;;;;;;;;5114985;28;20238;-41
2021/05/09 03:20:04;;;;;;;1.30;1.20;;;;;;;;;;5115252;28;20169;-41
2021/05/09 03:22:30;;;;;;;1.00;1.00;;;;;;;;;;5113213;28;20225;-41
2021/05/09 03:24:56;;;;;;;1.08;1.05;;;;;;;;;;5114933;28;20559;-41
2021/05/09 03:27:22;;;;;;;1.10;1.10;;;;;;;;;;5115208;28;20209;-41
2021/05/09 03:29:48;;;;;;;1.33;1.17;;;;;;;;;;5115344;28;20179;-41
2021/05/09 03:32:14;;;;;;;1.73;1.00;;;;;;;;;;5114276;28;20491;-41
2021/05/09 03:34:40;;;;;;;2.75;1.00;;;;;;;;;;5106820;28;20184;-41
2021/05/09 03:37:06;;;;;;;1.08;0.98;;;;;;;;;;5118815;28;20308;-41
2021/05/09 03:39:32;;;;;;;1.23;1.13;;;;;;;;;;5118909;28;20173;-41
2021/05/09 03:41:58;;;;;;;2.90;1.00;;;;;;;;;;5118745;28;20177;-41
2021/05/09 03:44:24;;;;;;;0.98;0.90;;;;;;;;;;5102493;28;20185;-41
2021/05/09 03:46:50;;;;;;;1.25;1.08;;;;;;;;;;5098902;28;20197;-41
2021/05/09 03:49:15;;;;;;;1.90;0.90;;;;;;;;;;5104476;28;20189;-41
2021/05/09 03:51:41;;;;;;;0.93;0.90;;;;;;;;;;5118223;28;20187;-41
2021/05/09 03:54:07;;;;;;;1.50;1.13;;;;;;;;;;5118442;28;20187;-41
2021/05/09 03:56:33;;;;;;;1.75;0.95;;;;;;;;;;5110835;28;20539;-41
2021/05/09 03:58:59;;;;;;;0.80;0.80;;;;;;;;;;5098630;28;20511;-41
2021/05/09 04:01:25;;;;;;;1.17;1.00;;;;;;;;;;5108222;28;20282;-41
2021/05/09 04:03:51;;;;;;;0.77;0.70;;;;;;;;;;5117959;28;20262;-41
2021/05/09 04:06:17;;;;;;;1.33;1.00;;;;;;;;;;5098399;28;20173;-41
2021/05/09 04:08:43;;;;;;;1.33;0.70;;;;;;;;;;5099930;28;20497;-41
2021/05/09 04:11:12;;;;;;;1.50;1.00;;;;;;;;;;5117587;28;20185;-41
2021/05/09 04:13:45;;;;;;;0.82;0.80;;;;;;;;;;5118327;28;20279;-41
2021/05/09 04:16:11;;;;;;;1.20;0.80;;;;;;;;;;5118475;28;20280;-41
2021/05/09 04:18:37;;;;;;;3.15;1.27;;;;;;;;;;5114198;28;20209;-41
2021/05/09 04:21:03;;;;;;;0.90;0.90;;;;;;;;;;5117596;28;20505;-40
2021/05/09 04:23:29;;;;;;;1.52;1.25;;;;;;;;;;5117810;28;20248;-41
2021/05/09 04:25:55;;;;;;;0.90;0.90;;;;;;;;;;5116822;28;20276;-41
2021/05/09 04:28:21;;;;;;;1.50;1.33;;;;;;;;;;5099296;28;20257;-41
2021/05/09 04:30:47;;;;;;;1.10;1.00;;;;;;;;;;5114101;28;20180;-41
2021/05/09 04:33:14;;;;;;;0.98;0.90;;;;;;;;;;5117770;28;20638;-41
2021/05/09 04:35:43;;;;;;;0.93;0.90;;;;;;;;;;5118203;28;20161;-41
2021/05/09 04:38:10;;;;;;;1.25;1.08;;;;;;;;;;5117985;28;20637;-41
2021/05/09 04:40:36;;;;;;;0.80;0.80;;;;;;;;;;5117292;28;20227;-41
2021/05/09 04:43:07;;;;;;;0.70;0.70;;;;;;;;;;5116916;28;20169;-41
2021/05/09 04:45:33;;;;;;;0.82;0.82;;;;;;;;;;5117581;28;20196;-41
2021/05/09 04:47:59;;;;;;;1.85;0.90;;;;;;;;;;5117156;28;20169;-41
2021/05/09 04:50:25;;;;;;;0.80;0.80;;;;;;;;;;5116591;28;20205;-41
2021/05/09 04:52:51;;;;;;;0.85;0.85;;;;;;;;;;5109062;28;20260;-41
2021/05/09 04:55:17;;;;;;;3.47;0.93;;;;;;;;;;5117406;28;20207;-41
2021/05/09 04:57:43;;;;;;;0.75;0.75;;;;;;;;;;5117579;28;20216;-41
2021/05/09 05:00:09;;;;;;;1.00;0.90;;;;;;;;;;5116849;28;20181;-41
2021/05/09 05:02:35;;;;;;;2.33;0.80;;;;;;;;;;5116449;28;20228;-41
2021/05/09 05:05:01;;;;;;;0.85;0.85;;;;;;;;;;5116972;28;20602;-40
2021/05/09 05:07:27;;;;;;;0.93;0.93;;;;;;;;;;5116450;28;20220;-41
2021/05/09 05:09:53;;;;;;;0.85;0.85;;;;;;;;;;5116730;28;20243;-41
2021/05/09 05:12:19;;;;;;;0.90;0.90;;;;;;;;;;5117015;28;20173;-41
2021/05/09 05:14:45;;;;;;;1.90;0.90;;;;;;;;;;5117127;28;20226;-41
2021/05/09 05:17:11;;;;;;;1.40;0.80;;;;;;;;;;5117330;28;20203;-41
2021/05/09 05:19:37;;;;;;;1.20;1.10;;;;;;;;;;5117014;28;20184;-41
2021/05/09 05:22:04;;;;;;;0.98;0.98;;;;;;;;;;5115847;28;20181;-41
2021/05/09 05:24:31;;;;;;;0.95;0.95;;;;;;;;;;5116587;28;20177;-41
2021/05/09 05:26:57;;;;;;;0.98;0.98;;;;;;;;;;5117087;28;20180;-40
2021/05/09 05:29:23;;;;;;;0.73;0.73;;;;;;;;;;5116173;28;20252;-41
2021/05/09 05:31:50;;;;;;;1.27;1.05;;;;;;;;;;5116571;28;20248;-41
2021/05/09 05:34:17;;;;;;;0.80;0.80;;;;;;;;;;5117122;28;20161;-41
2021/05/09 05:36:43;;;;;;;1.00;0.90;;;;;;;;;;5115755;28;20193;-41
2021/05/09 05:39:09;;;;;;;3.88;0.75;;;;;;;;;;5116421;28;20203;-41
2021/05/09 05:41:35;;;;;;;3.13;1.00;;;;;;;;;;5116079;28;20208;-40
2021/05/09 05:44:01;;;;;;;1.25;0.80;;;;;;;;;;5115868;28;20173;-41
2021/05/09 05:46:29;;;;;;;2.10;1.00;;;;;;;;;;5116664;28;20585;-41
2021/05/09 05:48:55;;;;;;;2.55;1.05;;;;;;;;;;5116048;28;20511;-40
2021/05/09 05:51:21;;;;;;;2.45;0.98;;;;;;;;;;5115374;28;20192;-40
2021/05/09 05:53:47;;;;;;;1.95;0.88;;;;;;;;;;5098672;28;20206;-40
2021/05/09 05:56:13;;;;;;;4.20;1.33;;;;;;;;;;5102072;28;20257;-41
2021/05/09 05:58:40;;;;;;;2.80;1.50;;;;;;;;;;5110175;28;20173;-40
2021/05/09 06:01:06;;;;;;;2.42;1.58;;;;;;;;;;5113369;28;20641;-41
2021/05/09 06:03:32;;;;;;;4.85;1.33;;;;;;;;;;5116333;28;20185;-41
2021/05/09 06:05:58;;;;;;;4.88;1.25;;;;;;;;;;5116283;28;20176;-41
2021/05/09 06:08:27;;;;;;;2.00;1.30;;;;;;;;;;5115192;28;20596;-41
2021/05/09 06:10:54;;;;;;;4.70;1.45;;;;;;;;;;5115137;28;20698;-41
2021/05/09 06:13:23;;;;;;;2.13;1.25;;;;;;;;;;5115652;28;20557;-41
2021/05/09 06:15:49;;;;;;;3.45;1.33;;;;;;;;;;5116198;28;20221;-41
2021/05/09 06:18:15;;;;;;;2.47;1.20;;;;;;;;;;5115934;28;20212;-41
2021/05/09 06:20:42;;;;;;;1.90;1.40;;;;;;;;;;5114708;28;20181;-40
2021/05/09 06:23:10;;;;;;;1.00;1.00;;;;;;;;;;5115878;28;20173;-40
2021/05/09 06:25:36;;;;;;;1.33;1.20;;;;;;;;;;5109520;28;20177;-40
2021/05/09 06:28:02;;;;;;;2.50;1.00;;;;;;;;;;5105557;28;20189;-41
2021/05/09 06:30:28;;;;;;;1.17;1.02;;;;;;;;;;5115357;28;20188;-41
2021/05/09 06:32:54;;;;;;;1.25;0.80;;;;;;;;;;5115682;28;20169;-41
2021/05/09 06:35:20;;;;;;;2.08;1.00;;;;;;;;;;5115480;28;20189;-41
2021/05/09 06:37:47;;;;;;;1.10;1.00;;;;;;;;;;5115587;28;20204;-40
2021/05/09 06:40:13;;;;;;;1.83;1.10;;;;;;;;;;5110324;28;20170;-40
2021/05/09 06:42:39;;;;;;;1.52;1.02;;;;;;;;;;5114500;28;20245;-40
2021/05/09 06:45:12;;;;;;;0.90;0.90;;;;;;;;;;5115681;28;20240;-41
2021/05/09 06:47:38;;;;;;;0.95;0.93;;;;;;;;;;5115478;28;20161;-41
2021/05/09 06:50:05;;;;;;;2.72;0.90;;;;;;;;;;5115382;28;20582;-41
2021/05/09 06:52:31;;;;;;;2.83;1.33;;;;;;;;;;5114697;28;20185;-41
2021/05/09 06:54:57;;;;;;;0.98;0.90;;;;;;;;;;5114209;28;20180;-41
2021/05/09 06:57:23;;;;;;;0.88;0.88;;;;;;;;;;5114758;28;20349;-41
2021/05/09 06:59:49;;;;;;;1.88;0.90;;;;;;;;;;5115121;28;20185;-40
2021/05/09 07:02:15;;;;;;;1.55;0.80;;;;;;;;;;5096592;28;20195;-40
2021/05/09 07:04:41;;;;;;;3.22;1.20;;;;;;;;;;5115310;28;20668;-41
2021/05/09 07:07:07;;;;;;;3.80;1.10;;;;;;;;;;5114256;28;20200;-40
2021/05/09 07:09:33;;;;;;;1.27;1.08;;;;;;;;;;5113891;28;20234;-40
2021/05/09 07:11:59;;;;;;;1.67;0.90;;;;;;;;;;5096165;28;20181;-40
2021/05/09 07:14:25;;;;;;;0.98;0.88;;;;;;;;;;5114782;28;20453;-41
2021/05/09 07:16:51;;;;;;;1.30;1.05;;;;;;;;;;5114791;28;20204;-40
2021/05/09 07:19:18;;;;;;;2.88;0.98;;;;;;;;;;5114015;28;20172;-40
2021/05/09 07:21:52;;;;;;;1.55;0.80;;;;;;;;;;5113287;28;20272;-41
2021/05/09 07:24:18;;;;;;;1.33;0.98;;;;;;;;;;5114625;28;20233;-41
2021/05/09 07:26:45;;;;;;;1.45;1.10;;;;;;;;;;5112222;28;20191;-41
2021/05/09 07:29:11;;;;;;;2.75;0.90;;;;;;;;;;5115019;28;20610;-40
2021/05/09 07:31:40;;;;;;;1.45;0.90;;;;;;;;;;5099840;28;20190;-40
2021/05/09 07:34:07;;;;;;;0.82;0.73;;;;;;;;;;5102898;28;20263;-41
2021/05/09 07:36:33;;;;;;;1.88;1.20;;;;;;;;;;5114013;28;20587;-41
2021/05/09 07:38:59;;;;;;;1.00;0.90;;;;;;;;;;5114931;28;20601;-40
2021/05/09 07:41:25;;;;;;;1.38;0.98;;;;;;;;;;5114015;28;20181;-41
2021/05/09 07:43:51;;;;;;;0.93;0.90;;;;;;;;;;5115040;28;20409;-41
2021/05/09 07:46:17;;;;;;;0.85;0.85;;;;;;;;;;5096986;28;20177;-40
2021/05/09 07:48:43;;;;;;;1.08;0.90;;;;;;;;;;5115042;28;20536;-41
2021/05/09 07:51:09;;;;;;;1.45;0.93;;;;;;;;;;5113137;28;20240;-41
2021/05/09 07:53:35;;;;;;;0.80;0.70;;;;;;;;;;5114793;28;20215;-41
2021/05/09 07:56:01;;;;;;;0.68;0.68;;;;;;;;;;5114471;28;20179;-41
2021/05/09 07:58:27;;;;;;;0.80;0.80;;;;;;;;;;5114761;28;20672;-41
2021/05/09 08:00:53;;;;;;;0.63;0.63;;;;;;;;;;5098215;28;20182;-41
2021/05/09 08:03:20;;;;;;;1.13;0.90;;;;;;;;;;5111882;28;20182;-41
2021/05/09 08:05:46;;;;;;;1.17;0.90;;;;;;;;;;5114518;28;20540;-41
2021/05/09 08:08:12;;;;;;;0.70;0.70;;;;;;;;;;5114978;28;20169;-41
2021/05/09 08:10:41;;;;;;;0.80;0.80;;;;;;;;;;5113827;28;20177;-41
2021/05/09 08:13:09;;;;;;;1.65;0.75;;;;;;;;;;5114167;28;20522;-41
2021/05/09 08:15:36;;;;;;;0.90;0.85;;;;;;;;;;5094279;28;20170;-41
2021/05/09 08:18:03;;;;;;;0.70;0.70;;;;;;;;;;5093979;28;20198;-41
2021/05/09 08:20:29;;;;;;;1.65;0.77;;;;;;;;;;5093824;28;20602;-41
2021/05/09 08:22:55;;;;;;;0.63;0.63;;;;;;;;;;5112064;28;20165;-41
2021/05/09 08:25:21;;;;;;;0.80;0.80;;;;;;;;;;5118071;28;20813;-41
2021/05/09 08:27:49;;;;;;;0.80;0.80;;;;;;;;;;5117555;28;20191;-41
2021/05/09 08:30:15;;;;;;;1.45;1.00;;;;;;;;;;5117818;28;20161;-41
2021/05/09 08:32:41;;;;;;;1.15;0.98;;;;;;;;;;5100405;28;20552;-41
2021/05/09 08:35:08;;;;;;;1.90;0.90;;;;;;;;;;5117856;28;20181;-40
2021/05/09 08:37:34;;;;;;;1.20;0.70;;;;;;;;;;5118026;28;20205;-41
2021/05/09 08:40:01;;;;;;;1.30;0.80;;;;;;;;;;5117639;28;20188;-41
2021/05/09 08:42:27;;;;;;;0.70;0.70;;;;;;;;;;5107351;28;20177;-41
2021/05/09 08:44:54;;;;;;;1.40;1.00;;;;;;;;;;5114334;28;20564;-41
2021/05/09 08:47:36;;;;;;;0.70;0.70;;;;;;;;;;5117619;28;20169;-41
2021/05/09 08:50:02;;;;;;;0.88;0.82;;;;;;;;;;5117642;28;20165;-41
2021/05/09 08:52:28;;;;;;;1.50;0.80;;;;;;;;;;5116872;28;20209;-41
2021/05/09 08:54:54;;;;;;;0.93;0.77;;;;;;;;;;5117480;28;20219;-40
2021/05/09 08:57:20;;;;;;;1.23;0.95;;;;;;;;;;5099080;28;20204;-41
2021/05/09 08:59:46;;;;;;;0.80;0.80;;;;;;;;;;5117208;28;20175;-41
2021/05/09 09:02:14;;;;;;;1.85;0.85;;;;;;;;;;5104288;28;20201;-41
2021/05/09 09:04:41;;;;;;;0.60;0.60;;;;;;;;;;5117540;28;20773;-41
2021/05/09 09:07:09;;;;;;;1.15;0.70;;;;;;;;;;5117371;28;20183;-41
2021/05/09 09:09:40;;;;;;;1.10;0.80;;;;;;;;;;5116199;28;20222;-41
2021/05/09 09:12:06;;;;;;;1.13;0.90;;;;;;;;;;5105527;28;20440;-41
2021/05/09 09:14:32;;;;;;;1.08;0.80;;;;;;;;;;5117037;28;20591;-41
2021/05/09 09:17:11;;;;;;;3.83;0.80;;;;;;;;;;5102471;28;20232;-41
2021/05/09 09:19:57;;;;;;;0.82;0.80;;;;;;;;;;5098951;28;20170;-41
2021/05/09 09:22:23;;;;;;;1.40;1.30;;;;;;;;;;5116288;28;20189;-41
2021/05/09 09:25:05;;;;;;;1.75;1.40;;;;;;;;;;5111606;28;20490;-41
2021/05/09 09:27:31;;;;;;;3.63;2.70;;;;;;;;;;5117249;28;20191;-41
2021/05/09 09:30:01;;;;;;;4.85;3.83;;;;;;;;;;5116916;28;20197;-41
2021/05/09 09:32:27;;;;;;;5.30;4.40;;;;;;;;;;5116173;28;20626;-41
2021/05/09 09:34:53;;;;;;;9.77;8.00;;;;;;;;;;5116977;28;20208;-41
2021/05/09 09:37:20;;;;;;;10.75;7.85;;;;;;;;;;5115689;28;20614;-41
2021/05/09 09:39:50;;;;;;;7.43;5.97;;;;;;;;;;5116472;28;20177;-41
2021/05/09 09:42:17;;;;;;;9.85;6.32;;;;;;;;;;5105318;28;20219;-41
2021/05/09 09:44:43;;;;;;;12.88;7.43;;;;;;;;;;5116645;28;20172;-41
2021/05/09 09:47:09;;;;;;;8.35;5.70;;;;;;;;;;5116350;28;20192;-41
2021/05/09 09:49:37;;;;;;;11.30;5.78;;;;;;;;;;5098766;28;20563;-41
2021/05/09 09:52:07;;;;;;;6.88;5.13;;;;;;;;;;5112689;28;20603;-41
2021/05/09 09:54:33;;;;;;;12.18;5.50;;;;;;;;;;5111762;28;20185;-41
2021/05/09 09:57:00;;;;;;;9.75;5.50;;;;;;;;;;5116249;28;20200;-41
2021/05/09 09:59:26;;;;;;;7.68;4.88;;;;;;;;;;5116532;28;20428;-41
2021/05/09 10:01:52;;;;;;;7.97;4.65;;;;;;;;;;5115990;28;20200;-41
2021/05/09 10:04:18;;;;;;;9.55;4.90;;;;;;;;;;5116278;28;20165;-41
2021/05/09 10:06:44;;;;;;;7.07;4.15;;;;;;;;;;5108529;28;20189;-41
2021/05/09 10:09:10;;;;;;;9.10;4.10;;;;;;;;;;5115341;28;20240;-41
2021/05/09 10:11:37;;;;;;;8.15;4.00;;;;;;;;;;5115354;28;20178;-41
2021/05/09 10:14:04;;;;;;;7.80;4.28;;;;;;;;;;5116086;28;20185;-41
2021/05/09 10:16:31;;;;;;;8.60;4.20;;;;;;;;;;5115970;28;20180;-41
2021/05/09 10:18:58;;;;;;;8.35;4.18;;;;;;;;;;5115968;28;20153;-41
2021/05/09 10:21:31;;;;;;;11.82;5.30;;;;;;;;;;5112550;28;20200;-41
2021/05/09 10:24:16;;;;;;;27.55;7.50;;;;;;;;;;5115500;28;20188;-41
2021/05/09 10:26:45;;;;;;;44.97;13.98;;;;;;;;;;5115785;28;20568;-41
2021/05/09 10:29:31;;;;;;;32.53;10.70;;;;;;;;;;5114971;28;20659;-41
2021/05/09 10:31:57;;;;;;;39.58;13.35;;;;;;;;;;5115268;28;20559;-41
2021/05/09 10:34:49;;;;;;;47.10;14.40;;;;;;;;;;5113029;28;20184;-41
2021/05/09 10:37:39;;;;;;;48.40;14.88;;;;;;;;;;5113099;28;20238;-41
2021/05/09 10:40:17;;;;;;;43.38;13.20;;;;;;;;;;5113674;28;20177;-41
2021/05/09 10:42:43;;;;;;;48.95;14.73;;;;;;;;;;5115046;28;20636;-41
2021/05/09 10:45:09;;;;;;;58.00;16.20;;;;;;;;;;5115216;28;20424;-41
2021/05/09 10:47:35;;;;;;;76.25;19.92;;;;;;;;;;5100411;28;20242;-41
2021/05/09 10:50:20;;;;;;;64.65;18.23;;;;;;;;;;5104103;28;20497;-41
2021/05/09 10:52:47;;;;;;;68.00;19.23;;;;;;;;;;5113783;28;20177;-41
2021/05/09 10:55:32;;;;;;;67.90;20.30;;;;;;;;;;5114547;28;20181;-41
2021/05/09 10:57:58;;;;;;;71.38;19.10;;;;;;;;;;5115185;28;20201;-41
2021/05/09 11:00:24;;;;;;;75.00;20.60;;;;;;;;;;5114859;28;20284;-41
2021/05/09 11:02:50;;;;;;;70.38;20.02;;;;;;;;;;5114023;28;20173;-41
2021/05/09 11:05:16;;;;;;;73.50;19.08;;;;;;;;;;5115030;28;20599;-41
2021/05/09 11:07:43;;;;;;;54.00;16.63;;;;;;;;;;5114941;28;20231;-41
2021/05/09 11:10:45;;;;;;;41.17;15.25;;;;;;;;;;5114063;28;20196;-40
2021/05/09 11:13:11;;;;;;;45.28;15.82;;;;;;;;;;5045718;28;20204;-41
2021/05/09 11:15:38;;;;;;;47.30;15.40;;;;;;;;;;5099635;28;20177;-41
2021/05/09 11:18:14;;;;;;;46.58;15.10;;;;;;;;;;5100322;28;20210;-41
2021/05/09 11:20:58;;;;;;;36.13;12.77;;;;;;;;;;5095906;28;20193;-41
2021/05/09 11:23:24;;;;;;;31.38;10.93;;;;;;;;;;5114087;28;20222;-41
2021/05/09 11:25:50;;;;;;;39.47;12.00;;;;;;;;;;5108055;28;20172;-41
2021/05/09 11:28:26;;;;;;;32.28;9.82;;;;;;;;;;5114651;28;20199;-41
2021/05/09 11:30:52;;;;;;;26.08;9.48;;;;;;;;;;5114165;28;20603;-41
2021/05/09 11:33:18;;;;;;;28.67;9.30;;;;;;;;;;5114667;28;20256;-41
2021/05/09 11:35:44;;;;;;;25.98;8.43;;;;;;;;;;5114632;28;20293;-41
2021/05/09 11:38:16;;;;;;;19.58;7.63;;;;;;;;;;5114530;28;20677;-41
2021/05/09 11:40:43;;;;;;;21.15;7.30;;;;;;;;;;5103468;28;20174;-41
2021/05/09 11:43:12;;;;;;;21.95;8.25;;;;;;;;;;5112405;28;20603;-41
2021/05/09 11:45:38;;;;;;;19.92;7.45;;;;;;;;;;5105493;28;20181;-41
2021/05/09 11:48:05;;;;;;;18.17;7.15;;;;;;;;;;5111451;28;20188;-41
2021/05/09 11:50:31;;;;;;;17.80;7.18;;;;;;;;;;5113937;28;20571;-41
2021/05/09 11:52:57;;;;;;;18.85;6.72;;;;;;;;;;5113895;28;20177;-41
2021/05/09 11:55:23;;;;;;;23.48;9.02;;;;;;;;;;5114248;28;20180;-41
2021/05/09 11:57:49;;;;;;;23.83;10.07;;;;;;;;;;5116425;28;20216;-41
2021/05/09 12:00:16;;;;;;;22.80;9.57;;;;;;;;;;5116314;28;20177;-41
2021/05/09 12:02:43;;;;;;;23.60;10.63;;;;;;;;;;5093436;28;20236;-41
2021/05/09 12:05:10;;;;;;;25.67;11.80;;;;;;;;;;5112411;28;20169;-41
2021/05/09 12:07:54;;;;;;;30.67;13.57;;;;;;;;;;5113838;28;20169;-41
2021/05/09 12:10:31;;;;;;;28.83;13.35;;;;;;;;;;5112412;28;20169;-41
2021/05/09 12:12:57;;;;;;;32.15;16.48;;;;;;;;;;5116720;28;20568;-41
2021/05/09 12:15:23;;;;;;;32.13;16.00;;;;;;;;;;5098851;28;20180;-41
2021/05/09 12:17:53;;;;;;;27.92;16.50;;;;;;;;;;5117781;28;20510;-41
2021/05/09 12:20:28;;;;;;;27.23;15.45;;;;;;;;;;5118408;28;20549;-41
2021/05/09 12:22:55;;;;;;;28.27;15.18;;;;;;;;;;5117346;28;20191;-41
2021/05/09 12:25:31;;;;;;;30.42;16.60;;;;;;;;;;5117982;28;20172;-41
2021/05/09 12:28:04;;;;;;;27.02;14.88;;;;;;;;;;5117970;28;20173;-41
2021/05/09 12:30:30;;;;;;;24.00;12.15;;;;;;;;;;5108787;28;20272;-41
2021/05/09 12:32:56;;;;;;;21.83;11.50;;;;;;;;;;5098067;28;20182;-41
2021/05/09 12:35:22;;;;;;;22.45;11.05;;;;;;;;;;5106759;28;20192;-41
2021/05/09 12:37:48;;;;;;;19.60;9.15;;;;;;;;;;5117923;28;20201;-41
2021/05/09 12:40:22;;;;;;;19.23;9.10;;;;;;;;;;5117794;28;20200;-41
2021/05/09 12:42:53;;;;;;;18.77;8.60;;;;;;;;;;5117702;28;20540;-41
2021/05/09 12:45:29;;;;;;;15.70;7.93;;;;;;;;;;5117559;28;20180;-41
2021/05/09 12:48:07;;;;;;;15.32;7.80;;;;;;;;;;5101611;28;20208;-41
2021/05/09 12:50:52;;;;;;;14.05;6.63;;;;;;;;;;5108120;28;20175;-41
2021/05/09 12:53:41;;;;;;;13.35;5.82;;;;;;;;;;5099697;28;20212;-41
2021/05/09 12:56:14;;;;;;;11.73;5.65;;;;;;;;;;5104769;28;20201;-41
2021/05/09 12:58:59;;;;;;;17.17;6.20;;;;;;;;;;5118015;28;20246;-41
2021/05/09 13:01:25;;;;;;;11.63;5.63;;;;;;;;;;5117031;28;20271;-41
2021/05/09 13:03:51;;;;;;;8.90;4.82;;;;;;;;;;5116825;28;20173;-41
2021/05/09 13:06:17;;;;;;;12.98;5.07;;;;;;;;;;5117492;28;20185;-41
2021/05/09 13:08:43;;;;;;;8.80;4.45;;;;;;;;;;5117287;28;20591;-41
2021/05/09 13:11:09;;;;;;;7.72;4.38;;;;;;;;;;5116697;28;20177;-41
2021/05/09 13:13:35;;;;;;;8.88;4.60;;;;;;;;;;5099516;28;20204;-41
2021/05/09 13:16:01;;;;;;;8.82;4.20;;;;;;;;;;5113473;28;20556;-41
2021/05/09 13:18:27;;;;;;;7.00;3.70;;;;;;;;;;5117285;28;20224;-41
2021/05/09 13:20:53;;;;;;;6.95;3.70;;;;;;;;;;5115981;28;20271;-41
2021/05/09 13:23:19;;;;;;;7.82;3.88;;;;;;;;;;5117163;28;20184;-41
2021/05/09 13:25:47;;;;;;;6.60;4.05;;;;;;;;;;5117050;28;20204;-41
2021/05/09 13:28:13;;;;;;;8.23;3.42;;;;;;;;;;5112764;28;20192;-41
2021/05/09 13:30:39;;;;;;;7.65;3.42;;;;;;;;;;5116470;28;20267;-41
2021/05/09 13:33:05;;;;;;;6.57;3.58;;;;;;;;;;5116800;28;20196;-41
2021/05/09 13:35:31;;;;;;;5.45;3.20;;;;;;;;;;5115746;28;20181;-41
2021/05/09 13:37:58;;;;;;;6.50;3.42;;;;;;;;;;5116697;28;20205;-41
2021/05/09 13:40:25;;;;;;;6.13;3.40;;;;;;;;;;5108953;28;20184;-41
2021/05/09 13:42:51;;;;;;;4.35;3.00;;;;;;;;;;5116472;28;20170;-41
2021/05/09 13:45:17;;;;;;;6.70;3.60;;;;;;;;;;5116518;28;20195;-41
2021/05/09 13:47:43;;;;;;;7.70;3.78;;;;;;;;;;5116601;28;20209;-41
2021/05/09 13:50:09;;;;;;;4.70;2.90;;;;;;;;;;5116490;28;20187;-41
2021/05/09 13:52:36;;;;;;;4.03;2.88;;;;;;;;;;5114648;28;20205;-41
2021/05/09 13:55:02;;;;;;;5.53;2.75;;;;;;;;;;5116051;28;20572;-41
2021/05/09 13:57:28;;;;;;;5.57;3.28;;;;;;;;;;5116353;28;20201;-41
2021/05/09 13:59:54;;;;;;;5.10;2.92;;;;;;;;;;5116197;28;20181;-41
2021/05/09 14:02:20;;;;;;;5.28;2.95;;;;;;;;;;5115688;28;20177;-41
2021/05/09 14:04:46;;;;;;;6.38;2.55;;;;;;;;;;5116227;28;20587;-41
2021/05/09 14:07:12;;;;;;;4.43;2.58;;;;;;;;;;5116035;28;20256;-41
2021/05/09 14:09:38;;;;;;;4.80;2.47;;;;;;;;;;5115047;28;20212;-41
2021/05/09 14:12:07;;;;;;;4.90;2.72;;;;;;;;;;5115537;28;20208;-41
2021/05/09 14:14:39;;;;;;;4.18;2.80;;;;;;;;;;5116169;28;20229;-41
2021/05/09 14:17:05;;;;;;;4.13;2.55;;;;;;;;;;5115864;28;20299;-41
2021/05/09 14:19:31;;;;;;;5.75;2.47;;;;;;;;;;5115633;28;20169;-41
2021/05/09 14:21:57;;;;;;;3.25;2.20;;;;;;;;;;5115174;28;20459;-41
2021/05/09 14:24:23;;;;;;;4.05;2.38;;;;;;;;;;5115826;28;20232;-41
2021/05/09 14:26:49;;;;;;;4.78;2.30;;;;;;;;;;5114018;28;20204;-41
2021/05/09 14:29:15;;;;;;;3.80;2.60;;;;;;;;;;5115817;28;20227;-41
2021/05/09 14:31:41;;;;;;;4.85;2.40;;;;;;;;;;5115317;28;20435;-41
2021/05/09 14:34:07;;;;;;;3.33;2.60;;;;;;;;;;5110890;28;20187;-41
2021/05/09 14:36:33;;;;;;;5.43;2.65;;;;;;;;;;5114972;28;20181;-41
2021/05/09 14:38:59;;;;;;;2.88;2.22;;;;;;;;;;5115541;28;20503;-41